Arena, Wisconsin
Current Conditions -  °F | °C
As of 1:56 AM on Saturday 29 Nov 2014 (Local Time) from KLNR Reporting Station
Haze Haze  
Wind Chill: 24°   Ceiling: Unl
Heat Index: 31°   Visibility: 6mi
Dew Point: 25°   Wind: 7mph
Humidity: 79%   Direction: 90°E
Pressure: 29.73"   Gusts: NA
Location:  43.17°N, 89.91°W
Report Text: KLNR 290756Z AUTO 09006KT 6SM HZ CLR M01/M04 A2973 RMK AO2 SLP070 I1000 T10061039
Loading
Personal Weather Stations






























Interactive Weather Map New forecast layout! Learn more

10-Day Weather Forecast

Advertisements
Track Severe Weather on mobile